Terminal Aerodrome Forecast
Issued by NWS La Crosse, WI

Home | Current Version | Previous Version | Text Only | Print | Product List | Glossary On
Versions: 1 2 3 4 5 6 7 8 9 10 11 12 13 14 15 16 17
000
FTUS43 KARX 230525
TAFLSE
TAF
KLSE 230525Z 2306/2406 30007KT P6SM SCT025 BKN050
     FM230800 33006KT P6SM BKN015
     FM231400 36007KT P6SM SCT015 BKN035
     FM232100 06007KT P6SM BKN040
     FM240100 07008KT 5SM -RA OVC015=

USA.gov is the U.S. government's official web portal to all federal, state and local government web resources and services.